Time;durP1;ratioP1;P1;durP2;ratioP2;P2;SDS_P1;SDS_P2;PMS_P1;PMS_P2;Temp;Humidity;BMP_temperature;BMP_pressure;BME280_temperature;BME280_humidity;BME280_pressure;Samples;Min_cycle;Max_cycle;Signal;HPM_P1;HPM_P2
2024/03/04 00:02:03;;;;;;;;;;;;;;;6.00;72.31;96199.25;7399023;19;1811;-67
2024/03/04 00:04:32;;;;;;;;;;;;;;;5.96;72.32;96197.63;7398963;19;996;-68
2024/03/04 00:07:01;;;;;;;;;;;;;;;5.91;72.23;96201.19;7398461;19;1021;-68
2024/03/04 00:09:30;;;;;;;;;;;;;;;5.87;71.72;96202.13;7396321;19;1865;-72
2024/03/04 00:12:01;;;;;;;;;;;;;;;5.74;71.18;96196.41;7398757;19;1052;-73
2024/03/04 00:14:29;;;;;;;;;;;;;;;5.60;71.17;96204.50;7398141;19;1033;-68
2024/03/04 00:16:58;;;;;;;;;;;;;;;5.49;71.33;96194.41;7398351;19;2013;-67
2024/03/04 00:19:26;;;;;;;;;;;;;;;5.24;72.26;96191.50;7398504;19;1400;-64
2024/03/04 00:21:56;;;;;;;;;;;;;;;5.00;73.22;96194.59;7398253;19;942;-70
2024/03/04 00:24:24;;;;;;;;;;;;;;;5.00;74.95;96191.16;7397808;19;994;-73
2024/03/04 00:26:53;;;;;;;;;;;;;;;4.98;74.45;96196.38;7397803;19;1088;-69
2024/03/04 00:29:24;;;;;;;;;;;;;;;4.93;74.24;96193.88;7397393;19;1885;-68
2024/03/04 00:31:53;;;;;;;;;;;;;;;4.90;74.69;96201.72;7397498;19;1179;-66
2024/03/04 00:34:22;;;;;;;;;;;;;;;4.78;74.44;96202.81;7397210;19;1188;-71
2024/03/04 00:36:52;;;;;;;;;;;;;;;4.67;74.11;96204.78;7397521;19;1298;-68
2024/03/04 00:39:21;;;;;;;;;;;;;;;4.62;74.81;96204.00;7397365;19;1142;-71
2024/03/04 00:41:50;;;;;;;;;;;;;;;4.60;74.07;96201.44;7397184;19;1223;-70
2024/03/04 00:44:20;;;;;;;;;;;;;;;4.58;73.81;96210.13;7397219;19;1026;-71
2024/03/04 00:46:51;;;;;;;;;;;;;;;4.53;73.98;96194.69;7397184;19;1089;-68
2024/03/04 00:49:19;;;;;;;;;;;;;;;4.58;73.74;96205.81;7396984;19;1857;-68
2024/03/04 00:51:48;;;;;;;;;;;;;;;4.58;74.27;96215.31;7396903;19;1032;-71
2024/03/04 00:54:16;;;;;;;;;;;;;;;4.63;74.07;96203.09;7397281;19;975;-70
2024/03/04 00:56:45;;;;;;;;;;;;;;;4.65;74.08;96202.22;7397192;19;1030;-72
2024/03/04 00:59:13;;;;;;;;;;;;;;;4.67;75.56;96197.84;7396976;19;1809;-67
2024/03/04 01:01:42;;;;;;;;;;;;;;;4.69;75.68;96192.63;7397406;19;1787;-74
2024/03/04 01:04:14;;;;;;;;;;;;;;;4.71;75.28;96185.69;7396608;19;1037;-70
2024/03/04 01:06:43;;;;;;;;;;;;;;;4.81;75.86;96196.72;7396552;19;1104;-65
2024/03/04 01:09:12;;;;;;;;;;;;;;;4.89;76.08;96204.34;7395028;19;1846;-71
2024/03/04 01:11:41;;;;;;;;;;;;;;;4.95;76.85;96203.34;7396822;19;959;-71
2024/03/04 01:14:09;;;;;;;;;;;;;;;5.04;76.25;96201.44;7396327;19;1084;-68
2024/03/04 01:16:35;;;;;;;;;;;;;;;5.15;76.09;96205.53;7396320;19;1851;-70
2024/03/04 01:19:04;;;;;;;;;;;;;;;5.21;76.45;96199.34;7394580;19;1077;-70
2024/03/04 01:21:35;;;;;;;;;;;;;;;5.24;76.79;96194.94;7396001;19;1033;-70
2024/03/04 01:24:04;;;;;;;;;;;;;;;5.30;76.59;96191.38;7395833;19;923;-68
2024/03/04 01:26:32;;;;;;;;;;;;;;;5.34;76.75;96193.00;7396291;19;1054;-69
2024/03/04 01:29:01;;;;;;;;;;;;;;;5.28;78.05;96191.41;7396050;19;1834;-70
2024/03/04 01:31:29;;;;;;;;;;;;;;;5.39;78.59;96193.72;7396154;19;1863;-67
2024/03/04 01:33:58;;;;;;;;;;;;;;;5.48;78.69;96184.06;7395824;19;1913;-72
2024/03/04 01:36:26;;;;;;;;;;;;;;;5.48;77.98;96184.88;7395859;19;1812;-73
2024/03/04 01:38:57;;;;;;;;;;;;;;;5.52;78.36;96181.34;7395503;19;1044;-72
2024/03/04 01:41:27;;;;;;;;;;;;;;;5.58;78.07;96180.34;7395241;19;923;-67
2024/03/04 01:43:56;;;;;;;;;;;;;;;5.61;77.58;96187.19;7395193;19;1073;-72
2024/03/04 01:46:24;;;;;;;;;;;;;;;5.66;78.01;96188.78;7393837;19;1121;-69
2024/03/04 01:48:53;;;;;;;;;;;;;;;5.69;78.28;96186.13;7395086;19;1025;-68
2024/03/04 01:51:22;;;;;;;;;;;;;;;5.66;78.39;96183.59;7393388;19;1826;-66
2024/03/04 01:53:51;;;;;;;;;;;;;;;5.72;78.87;96192.16;7395195;19;1826;-68
2024/03/04 01:56:22;;;;;;;;;;;;;;;5.76;78.97;96183.38;7395620;19;1742;-70
2024/03/04 01:58:51;;;;;;;;;;;;;;;5.77;78.52;96190.28;7394913;19;1075;-73
2024/03/04 02:01:20;;;;;;;;;;;;;;;5.83;79.17;96187.53;7394713;19;1037;-72
2024/03/04 02:03:48;;;;;;;;;;;;;;;5.90;78.85;96193.44;7394687;19;1065;-66
2024/03/04 02:06:18;;;;;;;;;;;;;;;5.96;78.32;96190.66;7395007;19;1841;-69
2024/03/04 02:08:46;;;;;;;;;;;;;;;5.94;78.65;96192.47;7393665;19;1835;-69
2024/03/04 02:11:15;;;;;;;;;;;;;;;6.01;78.79;96194.00;7393666;19;1861;-72
2024/03/04 02:13:46;;;;;;;;;;;;;;;6.08;77.91;96184.34;7394776;19;953;-66
2024/03/04 02:16:15;;;;;;;;;;;;;;;6.13;77.74;96186.81;7394402;19;1123;-67
2024/03/04 02:18:43;;;;;;;;;;;;;;;6.12;77.53;96188.59;7394609;19;1926;-68
2024/03/04 02:21:14;;;;;;;;;;;;;;;6.15;77.17;96185.91;7394178;19;1115;-68
2024/03/04 02:23:45;;;;;;;;;;;;;;;6.17;77.51;96183.28;7394141;19;1037;-70
2024/03/04 02:26:14;;;;;;;;;;;;;;;6.24;77.13;96191.75;7394472;19;972;-70
2024/03/04 02:28:42;;;;;;;;;;;;;;;6.26;77.02;96193.41;7394493;19;1029;-68
2024/03/04 02:31:13;;;;;;;;;;;;;;;6.29;76.84;96198.50;7392718;19;1811;-71
2024/03/04 02:33:43;;;;;;;;;;;;;;;6.32;76.69;96195.84;7393823;19;1099;-69
2024/03/04 02:36:12;;;;;;;;;;;;;;;6.33;77.07;96199.31;7394358;19;1035;-66
2024/03/04 02:38:41;;;;;;;;;;;;;;;6.35;77.27;96202.69;7393698;19;1119;-71
2024/03/04 02:41:12;;;;;;;;;;;;;;;6.37;76.89;96207.84;7394239;19;1086;-67
2024/03/04 02:43:42;;;;;;;;;;;;;;;6.37;77.40;96202.66;7393568;19;1089;-70
2024/03/04 02:46:11;;;;;;;;;;;;;;;6.36;77.47;96200.97;7393418;19;920;-71
2024/03/04 02:48:39;;;;;;;;;;;;;;;6.22;78.20;96198.72;7393452;19;1041;-69
2024/03/04 02:51:07;;;;;;;;;;;;;;;6.26;78.58;96197.75;7392396;19;2733;-71
2024/03/04 02:53:36;;;;;;;;;;;;;;;6.32;79.05;96201.03;7393674;19;1907;-72
2024/03/04 02:56:04;;;;;;;;;;;;;;;6.37;79.12;96200.06;7393646;19;1810;-64
2024/03/04 02:58:36;;;;;;;;;;;;;;;6.40;79.42;96203.44;7398105;19;1052;-71
2024/03/04 03:01:04;;;;;;;;;;;;;;;6.47;79.63;96198.09;7400698;19;1136;-71
2024/03/04 03:03:32;;;;;;;;;;;;;;;6.52;79.20;96201.38;7401389;19;1393;-71
2024/03/04 03:06:01;;;;;;;;;;;;;;;6.53;79.05;96203.13;7400854;19;1098;-66
2024/03/04 03:08:29;;;;;;;;;;;;;;;6.53;79.19;96201.34;7399811;19;1805;-74
2024/03/04 03:10:58;;;;;;;;;;;;;;;6.60;79.21;96196.84;7399067;19;1853;-67
2024/03/04 03:13:27;;;;;;;;;;;;;;;6.64;78.98;96193.28;7400207;19;1973;-65
2024/03/04 03:15:58;;;;;;;;;;;;;;;6.69;78.56;96203.53;7400673;19;971;-70
2024/03/04 03:18:26;;;;;;;;;;;;;;;6.74;78.68;96208.63;7400141;19;1123;-66
2024/03/04 03:20:55;;;;;;;;;;;;;;;6.78;78.38;96213.69;7400410;19;1905;-64
2024/03/04 03:23:23;;;;;;;;;;;;;;;6.82;78.62;96209.25;7399928;19;1108;-70
2024/03/04 03:25:52;;;;;;;;;;;;;;;6.83;78.64;96214.41;7400272;19;959;-67
2024/03/04 03:28:20;;;;;;;;;;;;;;;6.88;78.31;96210.81;7400059;19;959;-74
2024/03/04 03:30:49;;;;;;;;;;;;;;;6.90;78.18;96201.22;7399086;19;1833;-65
2024/03/04 03:33:20;;;;;;;;;;;;;;;6.91;78.15;96202.91;7399526;19;1119;-67
2024/03/04 03:35:48;;;;;;;;;;;;;;;6.91;78.25;96203.78;7399154;19;1057;-71
2024/03/04 03:38:17;;;;;;;;;;;;;;;6.91;78.03;96201.19;7399152;19;1073;-68
2024/03/04 03:40:45;;;;;;;;;;;;;;;6.91;77.84;96211.59;7399648;19;1819;-66
2024/03/04 03:43:14;;;;;;;;;;;;;;;6.89;77.99;96202.97;7399651;19;964;-70
2024/03/04 03:45:43;;;;;;;;;;;;;;;6.91;77.88;96201.19;7399592;19;1017;-72
2024/03/04 03:48:11;;;;;;;;;;;;;;;6.94;78.38;96198.50;7398940;19;1119;-72
2024/03/04 03:50:42;;;;;;;;;;;;;;;6.97;78.25;96194.94;7398404;19;1850;-73
2024/03/04 03:53:11;;;;;;;;;;;;;;;7.01;78.18;96193.13;7398833;19;1073;-73
2024/03/04 03:55:40;;;;;;;;;;;;;;;7.04;77.51;96206.88;7398766;19;1049;-69
2024/03/04 03:58:08;;;;;;;;;;;;;;;6.95;77.58;96201.94;7398629;19;1011;-72
2024/03/04 04:00:39;;;;;;;;;;;;;;;6.92;77.54;96192.47;7398701;19;1086;-68
2024/03/04 04:03:07;;;;;;;;;;;;;;;6.93;77.76;96201.97;7398554;19;1037;-70
2024/03/04 04:05:36;;;;;;;;;;;;;;;6.91;77.84;96206.38;7398921;19;1829;-63
2024/03/04 04:08:07;;;;;;;;;;;;;;;6.94;77.94;96202.84;7397374;19;1089;-72
2024/03/04 04:10:35;;;;;;;;;;;;;;;6.95;77.95;96213.19;7397544;19;1826;-63
2024/03/04 04:13:04;;;;;;;;;;;;;;;6.88;78.03;96216.00;7398673;19;1005;-66
2024/03/04 04:15:32;;;;;;;;;;;;;;;6.82;78.35;96214.44;7398271;19;1028;-69
2024/03/04 04:18:01;;;;;;;;;;;;;;;6.76;78.62;96222.41;7398168;19;1119;-66
2024/03/04 04:20:30;;;;;;;;;;;;;;;6.78;78.40;96216.28;7398525;19;1052;-72
2024/03/04 04:22:58;;;;;;;;;;;;;;;6.78;78.31;96226.69;7398367;19;982;-69
2024/03/04 04:25:29;;;;;;;;;;;;;;;6.80;78.38;96224.88;7398309;19;1020;-67
2024/03/04 04:27:59;;;;;;;;;;;;;;;6.85;78.13;96226.50;7398041;19;970;-68
2024/03/04 04:30:27;;;;;;;;;;;;;;;6.87;77.93;96219.50;7397047;19;1830;-67
2024/03/04 04:32:56;;;;;;;;;;;;;;;6.85;78.24;96229.97;7397826;19;1827;-68
2024/03/04 04:35:24;;;;;;;;;;;;;;;6.86;77.93;96228.22;7397803;19;1928;-70
2024/03/04 04:37:53;;;;;;;;;;;;;;;6.87;78.44;96225.56;7397728;19;981;-65
2024/03/04 04:40:21;;;;;;;;;;;;;;;6.90;78.08;96225.50;7397290;19;1135;-73
2024/03/04 04:42:52;;;;;;;;;;;;;;;6.92;78.22;96225.41;7397505;19;1913;-69
2024/03/04 04:45:24;;;;;;;;;;;;;;;6.97;78.41;96222.69;7397736;19;1012;-71
2024/03/04 04:47:53;;;;;;;;;;;;;;;6.99;78.79;96221.78;7396972;19;1048;-69
2024/03/04 04:50:22;;;;;;;;;;;;;;;6.95;78.37;96223.59;7396594;19;1863;-73
2024/03/04 04:52:50;;;;;;;;;;;;;;;6.93;78.36;96217.56;7397279;19;1021;-66
2024/03/04 04:55:19;;;;;;;;;;;;;;;6.97;78.32;96228.75;7397226;19;1033;-68
2024/03/04 04:57:47;;;;;;;;;;;;;;;6.98;78.88;96227.00;7396735;19;1962;-73
2024/03/04 05:00:19;;;;;;;;;;;;;;;7.02;78.73;96231.22;7396849;19;912;-66
2024/03/04 05:02:48;;;;;;;;;;;;;;;7.06;78.76;96230.22;7397048;19;1057;-69
2024/03/04 05:05:17;;;;;;;;;;;;;;;7.10;78.85;96231.00;7396513;19;1139;-70
2024/03/04 05:07:45;;;;;;;;;;;;;;;7.12;79.33;96230.06;7396904;19;1044;-69
2024/03/04 05:10:14;;;;;;;;;;;;;;;7.13;78.92;96226.56;7394613;19;1865;-61
2024/03/04 05:12:42;;;;;;;;;;;;;;;7.13;78.98;96234.34;7396588;19;1814;-75
2024/03/04 05:15:11;;;;;;;;;;;;;;;7.17;79.13;96242.94;7396403;19;1878;-71
2024/03/04 05:17:42;;;;;;;;;;;;;;;7.17;79.65;96243.78;7396303;19;1807;-70
2024/03/04 05:20:11;;;;;;;;;;;;;;;7.25;79.14;96247.94;7394454;19;1012;-67
2024/03/04 05:22:40;;;;;;;;;;;;;;;7.30;79.33;96253.84;7396024;19;1206;-69
2024/03/04 05:25:09;;;;;;;;;;;;;;;7.35;79.21;96256.28;7396299;19;959;-71
2024/03/04 05:27:37;;;;;;;;;;;;;;;7.35;79.34;96251.97;7396352;19;1051;-66
2024/03/04 05:30:06;;;;;;;;;;;;;;;7.38;79.47;96264.03;7396054;19;1791;-69
2024/03/04 05:32:34;;;;;;;;;;;;;;;7.43;79.47;96259.50;7394310;19;1845;-71
2024/03/04 05:35:07;;;;;;;;;;;;;;;7.50;79.66;96258.47;7395493;19;1111;-73
2024/03/04 05:37:36;;;;;;;;;;;;;;;7.53;79.21;96260.94;7395372;19;1013;-70
2024/03/04 05:40:09;;;;;;;;;;;;;;;7.56;78.63;96258.25;7395288;19;1040;-70
2024/03/04 05:42:39;;;;;;;;;;;;;;;7.58;78.56;96259.06;7395457;19;1120;-69
2024/03/04 05:45:09;;;;;;;;;;;;;;;7.62;77.64;96266.78;7395717;19;961;-68
2024/03/04 05:47:37;;;;;;;;;;;;;;;7.67;77.33;96265.72;7395086;19;1037;-68
2024/03/04 05:50:09;;;;;;;;;;;;;;;7.75;77.74;96262.03;7395419;19;1976;-70
2024/03/04 05:52:39;;;;;;;;;;;;;;;7.86;77.48;96259.09;7393377;19;1861;-66
2024/03/04 05:55:08;;;;;;;;;;;;;;;7.94;76.68;96254.50;7395373;19;1052;-70
2024/03/04 05:57:37;;;;;;;;;;;;;;;8.01;76.18;96261.19;7395081;19;1822;-69
2024/03/04 06:00:11;;;;;;;;;;;;;;;8.09;76.24;96261.81;7395322;19;1110;-63
2024/03/04 06:02:40;;;;;;;;;;;;;;;8.14;76.64;96266.03;7394858;19;1073;-66
2024/03/04 06:05:11;;;;;;;;;;;;;;;8.14;77.07;96269.50;7394983;19;1858;-67
2024/03/04 06:07:40;;;;;;;;;;;;;;;8.18;77.14;96270.22;7394999;19;1025;-72
2024/03/04 06:10:09;;;;;;;;;;;;;;;8.23;77.15;96278.75;7392751;19;1183;-65
2024/03/04 06:12:38;;;;;;;;;;;;;;;8.29;77.11;96278.56;7392980;19;1853;-73
2024/03/04 06:15:07;;;;;;;;;;;;;;;8.31;76.76;96274.13;7394514;19;1037;-69
2024/03/04 06:17:36;;;;;;;;;;;;;;;8.34;76.83;96279.25;7394594;19;1826;-68
2024/03/04 06:20:09;;;;;;;;;;;;;;;8.40;76.40;96282.56;7394618;19;1894;-68
2024/03/04 06:22:41;;;;;;;;;;;;;;;8.34;76.06;96281.84;7394124;19;1080;-65
2024/03/04 06:25:10;;;;;;;;;;;;;;;8.28;76.71;96282.06;7394124;19;1095;-72
2024/03/04 06:27:39;;;;;;;;;;;;;;;8.22;76.89;96284.88;7394078;19;1136;-68
2024/03/04 06:30:11;;;;;;;;;;;;;;;8.31;76.94;96284.56;7394346;19;1906;-66
2024/03/04 06:32:40;;;;;;;;;;;;;;;8.42;76.34;96288.56;7396383;19;1834;-69
2024/03/04 06:35:10;;;;;;;;;;;;;;;8.48;76.18;96283.16;7401830;19;1831;-76
2024/03/04 06:37:42;;;;;;;;;;;;;;;8.60;75.64;96279.31;7401434;19;1022;-66
2024/03/04 06:40:11;;;;;;;;;;;;;;;8.74;74.38;96283.19;7401235;19;1127;-74
2024/03/04 06:42:39;;;;;;;;;;;;;;;8.72;73.61;96289.31;7401500;19;1809;-72
2024/03/04 06:45:08;;;;;;;;;;;;;;;8.76;73.64;96282.22;7401231;19;1112;-73
2024/03/04 06:47:37;;;;;;;;;;;;;;;8.82;73.36;96294.22;7401526;19;1038;-64
2024/03/04 06:50:06;;;;;;;;;;;;;;;8.82;73.49;96283.78;7401052;19;1056;-67
2024/03/04 06:52:35;;;;;;;;;;;;;;;8.92;72.83;96294.75;7398762;19;1848;-68
2024/03/04 06:55:06;;;;;;;;;;;;;;;8.93;72.56;96294.69;7400868;19;1057;-69
2024/03/04 06:57:35;;;;;;;;;;;;;;;8.89;73.12;96297.47;7401356;19;1029;-71
2024/03/04 07:00:04;;;;;;;;;;;;;;;8.96;73.19;96294.59;7401038;19;1824;-72
2024/03/04 07:02:33;;;;;;;;;;;;;;;9.09;72.83;96294.13;7400918;19;1039;-69
2024/03/04 07:05:02;;;;;;;;;;;;;;;9.20;72.08;96299.81;7400850;19;1816;-66
2024/03/04 07:07:30;;;;;;;;;;;;;;;9.29;71.94;96297.78;7400455;19;1021;-65
2024/03/04 07:09:59;;;;;;;;;;;;;;;9.33;71.73;96288.94;7398320;19;1114;-70
2024/03/04 07:12:31;;;;;;;;;;;;;;;9.38;70.49;96296.59;7398479;19;1833;-71
2024/03/04 07:17:55;;;;;;;;;;;;;;;9.64;69.93;96289.53;7400424;19;884;-74
2024/03/04 07:20:24;;;;;;;;;;;;;;;9.69;69.62;96285.84;7400154;19;1041;-72
2024/03/04 07:22:52;;;;;;;;;;;;;;;9.80;69.56;96280.19;7400037;19;1000;-71
2024/03/04 07:25:21;;;;;;;;;;;;;;;9.89;69.77;96278.13;7400257;19;1810;-68
2024/03/04 07:27:52;;;;;;;;;;;;;;;9.98;69.53;96277.78;7400332;19;1065;-71
2024/03/04 07:30:20;;;;;;;;;;;;;;;10.08;69.47;96273.88;7399762;19;1380;-71
2024/03/04 07:32:49;;;;;;;;;;;;;;;10.10;69.92;96274.69;7397980;19;2041;-72
2024/03/04 07:35:18;;;;;;;;;;;;;;;10.07;69.14;96273.94;7399793;19;1830;-65
2024/03/04 07:37:46;;;;;;;;;;;;;;;9.88;70.66;96279.91;7399921;19;976;-72
2024/03/04 07:40:15;;;;;;;;;;;;;;;9.85;70.84;96285.25;7399881;19;1045;-70
2024/03/04 07:42:44;;;;;;;;;;;;;;;9.93;69.97;96279.72;7398720;19;1055;-65
2024/03/04 07:45:15;;;;;;;;;;;;;;;10.02;69.48;96288.97;7399083;19;1755;-68
2024/03/04 07:47:43;;;;;;;;;;;;;;;10.06;69.26;96288.75;7399105;19;1093;-72
2024/03/04 07:50:12;;;;;;;;;;;;;;;10.10;68.93;96286.88;7399864;19;1718;-70
2024/03/04 07:52:40;;;;;;;;;;;;;;;10.21;68.70;96292.50;7397499;19;1859;-69
2024/03/04 07:55:12;;;;;;;;;;;;;;;10.34;68.00;96281.56;7399287;19;1191;-73
2024/03/04 07:57:42;;;;;;;;;;;;;;;10.42;68.03;96291.72;7398747;19;1121;-68
2024/03/04 08:00:13;;;;;;;;;;;;;;;10.36;68.06;96287.59;7399276;19;1019;-68
2024/03/04 08:02:46;;;;;;;;;;;;;;;10.51;67.54;96293.13;7398604;19;1228;-64
2024/03/04 08:05:15;;;;;;;;;;;;;;;10.55;67.53;96282.47;7398967;19;1025;-71
2024/03/04 08:07:43;;;;;;;;;;;;;;;10.51;67.21;96291.38;7398383;19;1100;-68
2024/03/04 08:10:13;;;;;;;;;;;;;;;10.48;67.71;96287.09;7396258;19;1850;-68
2024/03/04 08:12:42;;;;;;;;;;;;;;;10.62;67.41;96290.91;7396886;19;1863;-67
2024/03/04 08:15:11;;;;;;;;;;;;;;;10.71;66.63;96294.88;7398708;19;1033;-69
2024/03/04 08:17:40;;;;;;;;;;;;;;;10.85;66.67;96291.69;7398490;19;1912;-69
2024/03/04 08:20:12;;;;;;;;;;;;;;;10.82;65.84;96297.06;7398210;19;1112;-68
2024/03/04 08:22:40;;;;;;;;;;;;;;;10.58;67.38;96292.81;7397897;19;1041;-70
2024/03/04 08:25:09;;;;;;;;;;;;;;;10.62;67.02;96303.97;7398271;19;1031;-70
2024/03/04 08:27:38;;;;;;;;;;;;;;;10.61;66.97;96300.53;7397868;19;1049;-68
2024/03/04 08:30:09;;;;;;;;;;;;;;;10.58;66.94;96302.41;7397850;19;1059;-67
2024/03/04 08:32:38;;;;;;;;;;;;;;;10.62;66.50;96301.38;7396440;19;1854;-64
2024/03/04 08:35:07;;;;;;;;;;;;;;;10.70;66.50;96307.13;7397627;19;1017;-69
2024/03/04 08:37:38;;;;;;;;;;;;;;;10.63;66.42;96305.69;7397807;19;1017;-73
2024/03/04 08:40:08;;;;;;;;;;;;;;;10.58;65.84;96300.66;7397969;19;1031;-72
2024/03/04 08:42:36;;;;;;;;;;;;;;;10.50;66.35;96300.13;7397602;19;1792;-75
2024/03/04 08:45:06;;;;;;;;;;;;;;;10.58;66.40;96302.41;7398051;19;1639;-71
2024/03/04 08:47:34;;;;;;;;;;;;;;;10.73;66.12;96303.53;7397140;19;1076;-73
2024/03/04 08:50:03;;;;;;;;;;;;;;;10.83;65.39;96301.38;7397499;19;964;-71
2024/03/04 08:52:32;;;;;;;;;;;;;;;10.88;65.01;96296.81;7396416;19;2010;-67
2024/03/04 08:55:03;;;;;;;;;;;;;;;11.02;64.97;96303.19;7396888;19;1435;-64
2024/03/04 08:57:31;;;;;;;;;;;;;;;11.07;64.43;96307.31;7396863;19;1076;-68
2024/03/04 09:00:00;;;;;;;;;;;;;;;11.09;63.75;96312.47;7396843;19;1025;-72
2024/03/04 09:02:29;;;;;;;;;;;;;;;11.15;63.70;96313.97;7397207;19;1027;-72
2024/03/04 09:04:58;;;;;;;;;;;;;;;11.22;63.87;96308.41;7396839;19;1873;-72
2024/03/04 09:07:27;;;;;;;;;;;;;;;11.22;63.12;96310.16;7396723;19;1908;-66
2024/03/04 09:09:59;;;;;;;;;;;;;;;11.18;62.56;96311.22;7394586;19;1209;-71
2024/03/04 09:12:31;;;;;;;;;;;;;;;11.28;63.92;96307.28;7395505;19;1853;-72
2024/03/04 09:15:00;;;;;;;;;;;;;;;11.43;63.42;96302.25;7396198;19;1157;-69
2024/03/04 09:17:30;;;;;;;;;;;;;;;11.57;62.45;96299.03;7396109;19;1123;-66
2024/03/04 09:19:59;;;;;;;;;;;;;;;11.78;61.41;96299.81;7396086;19;1109;-70
2024/03/04 09:22:29;;;;;;;;;;;;;;;11.96;61.41;96298.09;7396418;19;1069;-71
2024/03/04 09:24:57;;;;;;;;;;;;;;;12.10;61.03;96296.63;7396066;19;1025;-65
2024/03/04 09:27:26;;;;;;;;;;;;;;;12.18;60.91;96294.47;7395722;19;1061;-68
2024/03/04 09:29:59;;;;;;;;;;;;;;;12.37;60.10;96293.56;7395819;19;1064;-66
2024/03/04 09:32:28;;;;;;;;;;;;;;;12.53;59.75;96291.03;7394935;19;1837;-69
2024/03/04 09:34:57;;;;;;;;;;;;;;;12.71;59.12;96294.53;7395964;19;911;-69
2024/03/04 09:37:26;;;;;;;;;;;;;;;12.75;58.31;96292.56;7395385;19;954;-71
2024/03/04 09:39:55;;;;;;;;;;;;;;;12.86;57.81;96287.63;7395518;19;1033;-66
2024/03/04 09:42:26;;;;;;;;;;;;;;;13.00;56.17;96281.66;7395272;19;1262;-66
2024/03/04 09:44:58;;;;;;;;;;;;;;;13.07;53.79;96287.47;7395270;19;1057;-69
2024/03/04 09:47:26;;;;;;;;;;;;;;;13.06;54.34;96280.50;7395234;19;1029;-68
2024/03/04 09:49:55;;;;;;;;;;;;;;;13.12;54.55;96280.16;7395158;19;1088;-71
2024/03/04 09:52:25;;;;;;;;;;;;;;;12.95;55.01;96277.59;7394858;19;1942;-70
2024/03/04 09:54:55;;;;;;;;;;;;;;;13.06;55.27;96277.03;7395042;19;1012;-69
2024/03/04 10:00:22;;;;;;;;;;;;;;;12.96;55.78;96274.03;7394474;19;849;-67
2024/03/04 10:02:50;;;;;;;;;;;;;;;13.21;53.81;96267.47;7394771;19;1260;-65
2024/03/04 10:05:19;;;;;;;;;;;;;;;13.29;54.65;96267.06;7394737;19;1053;-68
2024/03/04 10:07:50;;;;;;;;;;;;;;;13.38;54.43;96254.31;7393645;19;1796;-73
2024/03/04 10:10:20;;;;;;;;;;;;;;;13.62;54.80;96248.69;7394959;19;982;-66
2024/03/04 10:12:49;;;;;;;;;;;;;;;13.82;53.10;96246.69;7394203;19;1838;-70
2024/03/04 10:15:22;;;;;;;;;;;;;;;13.84;54.53;96246.63;7394507;19;1037;-68
2024/03/04 10:17:55;;;;;;;;;;;;;;;13.80;54.11;96240.69;7394320;19;1036;-65
2024/03/04 10:20:26;;;;;;;;;;;;;;;14.10;53.41;96232.03;7394239;19;1104;-71
2024/03/04 10:22:54;;;;;;;;;;;;;;;14.58;52.64;96230.19;7394753;19;1010;-69
2024/03/04 10:25:23;;;;;;;;;;;;;;;14.85;51.63;96224.22;7394110;19;1301;-66
2024/03/04 10:27:53;;;;;;;;;;;;;;;15.13;52.38;96226.03;7394534;19;1477;-70
2024/03/04 10:30:22;;;;;;;;;;;;;;;15.60;50.65;96225.81;7394257;19;1929;-62
2024/03/04 10:32:54;;;;;;;;;;;;;;;15.86;48.78;96220.63;7393299;19;1861;-67
2024/03/04 10:35:22;;;;;;;;;;;;;;;15.84;47.53;96222.53;7393849;19;1104;-67
2024/03/04 10:37:51;;;;;;;;;;;;;;;15.59;47.29;96218.00;7394215;19;1921;-70
2024/03/04 10:40:21;;;;;;;;;;;;;;;15.47;50.97;96209.06;7394195;19;1021;-72
2024/03/04 10:42:50;;;;;;;;;;;;;;;15.58;50.16;96209.22;7393743;19;1080;-69
2024/03/04 10:45:18;;;;;;;;;;;;;;;15.73;48.44;96217.94;7393758;19;1154;-71
2024/03/04 10:47:47;;;;;;;;;;;;;;;15.72;48.69;96213.63;7393564;19;1009;-71
2024/03/04 10:50:18;;;;;;;;;;;;;;;15.84;48.85;96214.63;7393555;19;1452;-65
2024/03/04 10:52:47;;;;;;;;;;;;;;;15.63;47.00;96212.41;7392785;19;1836;-66
2024/03/04 10:55:15;;;;;;;;;;;;;;;15.43;48.40;96216.31;7393906;19;1910;-67
2024/03/04 10:57:45;;;;;;;;;;;;;;;15.08;50.01;96209.66;7393410;19;1090;-71
2024/03/04 11:00:20;;;;;;;;;;;;;;;15.09;49.53;96210.50;7393728;19;1897;-71
2024/03/04 11:02:53;;;;;;;;;;;;;;;14.93;50.75;96207.97;7393152;19;940;-71
2024/03/04 11:05:26;;;;;;;;;;;;;;;15.20;50.63;96208.03;7393169;19;1029;-67
2024/03/04 11:07:56;;;;;;;;;;;;;;;15.27;50.36;96198.81;7393440;19;1251;-69
2024/03/04 11:10:27;;;;;;;;;;;;;;;15.29;49.11;96196.09;7393152;19;1088;-69
2024/03/04 11:13:01;;;;;;;;;;;;;;;15.43;50.81;96189.97;7392382;19;1842;-65
2024/03/04 11:15:32;;;;;;;;;;;;;;;15.41;50.19;96200.59;7392885;19;1020;-70
2024/03/04 11:18:04;;;;;;;;;;;;;;;15.38;50.75;96199.97;7392828;19;1127;-66
2024/03/04 11:20:35;;;;;;;;;;;;;;;15.58;49.90;96196.06;7399997;19;1092;-68
2024/03/04 11:23:04;;;;;;;;;;;;;;;15.73;49.83;96188.94;7400413;19;1038;-67
2024/03/04 11:25:33;;;;;;;;;;;;;;;15.58;49.54;96189.91;7400037;19;1100;-65
2024/03/04 11:28:03;;;;;;;;;;;;;;;15.92;50.43;96188.59;7400171;19;1830;-69
2024/03/04 11:30:32;;;;;;;;;;;;;;;15.83;49.02;96191.00;7400320;19;1013;-70
2024/03/04 11:33:23;;;;;;;;;;;;;;;15.75;48.35;96175.66;7398883;19;1841;-68
2024/03/04 11:35:54;;;;;;;;;;;;;;;15.72;50.36;96166.16;7400066;19;1038;-67
2024/03/04 11:38:28;;;;;;;;;;;;;;;15.86;49.50;96162.63;7399971;19;1010;-68
2024/03/04 11:40:59;;;;;;;;;;;;;;;15.96;49.40;96167.28;7399443;19;1341;-67
2024/03/04 11:43:42;;;;;;;;;;;;;;;16.02;49.13;96162.47;7399318;19;1126;-67
2024/03/04 11:46:12;;;;;;;;;;;;;;;15.93;49.59;96160.44;7399254;19;1080;-66
2024/03/04 11:48:41;;;;;;;;;;;;;;;15.93;49.81;96157.81;7399617;19;1037;-68
2024/03/04 11:51:12;;;;;;;;;;;;;;;15.95;49.70;96157.69;7399535;19;1008;-71
2024/03/04 11:53:45;;;;;;;;;;;;;;;16.13;48.40;96153.84;7397594;19;1834;-70
2024/03/04 11:56:14;;;;;;;;;;;;;;;16.06;47.37;96154.38;7398905;19;1057;-68
2024/03/04 11:58:42;;;;;;;;;;;;;;;15.69;48.02;96145.28;7398804;19;997;-73
2024/03/04 12:01:11;;;;;;;;;;;;;;;14.87;50.20;96140.75;7398762;19;1367;-70
2024/03/04 12:03:53;;;;;;;;;;;;;;;14.87;51.14;96140.75;7398687;19;1009;-67
2024/03/04 12:06:24;;;;;;;;;;;;;;;14.30;52.02;96145.00;7398676;19;1112;-65
2024/03/04 12:08:54;;;;;;;;;;;;;;;14.04;52.34;96142.97;7397462;19;1096;-66
2024/03/04 12:11:24;;;;;;;;;;;;;;;13.79;53.24;96131.25;7398582;19;1013;-71
2024/03/04 12:13:52;;;;;;;;;;;;;;;13.70;53.89;96124.72;7397095;19;1846;-69
2024/03/04 12:16:21;;;;;;;;;;;;;;;13.62;54.93;96119.06;7398775;19;1821;-70
2024/03/04 12:18:50;;;;;;;;;;;;;;;13.59;54.27;96125.34;7398285;19;1144;-68
2024/03/04 12:21:20;;;;;;;;;;;;;;;13.39;54.46;96113.28;7398567;19;1052;-67
2024/03/04 12:23:52;;;;;;;;;;;;;;;13.27;54.88;96112.19;7398202;19;1830;-67
2024/03/04 12:26:21;;;;;;;;;;;;;;;13.24;55.77;96107.97;7398105;19;1140;-66
2024/03/04 12:28:59;;;;;;;;;;;;;;;13.16;56.10;96104.94;7398540;19;1651;-68
2024/03/04 12:31:28;;;;;;;;;;;;;;;13.25;55.25;96101.75;7397942;19;1008;-73
2024/03/04 12:33:57;;;;;;;;;;;;;;;13.40;55.49;96100.06;7396984;19;1849;-66
2024/03/04 12:36:26;;;;;;;;;;;;;;;13.36;55.14;96097.69;7397774;19;1020;-67
2024/03/04 12:38:57;;;;;;;;;;;;;;;13.56;55.59;96093.13;7398113;19;961;-68
2024/03/04 12:41:27;;;;;;;;;;;;;;;13.76;55.24;96084.09;7397540;19;1024;-67
2024/03/04 12:43:56;;;;;;;;;;;;;;;14.11;53.86;96085.56;7397863;19;1039;-72
2024/03/04 12:46:25;;;;;;;;;;;;;;;14.29;53.20;96088.88;7397407;19;1029;-69
2024/03/04 12:48:53;;;;;;;;;;;;;;;13.95;53.25;96088.28;7397286;19;1583;-70
2024/03/04 12:51:22;;;;;;;;;;;;;;;13.35;54.85;96085.50;7397610;19;984;-66
2024/03/04 12:53:51;;;;;;;;;;;;;;;13.29;55.13;96080.59;7396494;19;1867;-71
2024/03/04 12:56:22;;;;;;;;;;;;;;;13.06;55.76;96085.38;7397264;19;1975;-66
2024/03/04 12:58:51;;;;;;;;;;;;;;;13.16;55.59;96073.41;7396896;19;1014;-66
2024/03/04 13:01:21;;;;;;;;;;;;;;;13.12;56.16;96066.63;7397022;19;855;-65
2024/03/04 13:03:49;;;;;;;;;;;;;;;13.10;56.24;96074.59;7396649;19;1029;-69
2024/03/04 13:06:18;;;;;;;;;;;;;;;12.94;56.42;96069.34;7396649;19;1029;-69
2024/03/04 13:08:47;;;;;;;;;;;;;;;12.93;56.48;96070.28;7395884;19;1865;-65
2024/03/04 13:11:17;;;;;;;;;;;;;;;12.95;55.95;96065.81;7396468;19;1076;-66
2024/03/04 13:13:48;;;;;;;;;;;;;;;12.92;56.39;96068.59;7395505;19;1872;-73
2024/03/04 13:16:17;;;;;;;;;;;;;;;12.80;56.67;96072.75;7396308;19;1123;-71
2024/03/04 13:22:00;;;;;;;;;;;;;;;12.58;57.44;96054.69;7396275;19;862;-71
2024/03/04 13:24:29;;;;;;;;;;;;;;;12.66;57.64;96056.88;7396260;19;1038;-67
2024/03/04 13:26:57;;;;;;;;;;;;;;;12.67;57.03;96062.03;7396375;19;1720;-69